METAR Data
IDs: Format: Raw Decoded Include TAF

Data at: 0813 UTC 11 Dec 2018

PASK 110756Z AUTO 04012KT 10SM SCT060 BKN070 M12/M16 RMK AO2 SLPNO T11221161 FZRANO $
PASK 110656Z AUTO 05015KT 10SM SCT100 M12/M16 A2898 RMK AO2 SLP812 T11221161 FZRANO $
PASK 110556Z AUTO 04015KT 10SM FEW041 BKN070 M12/M15 A2899 RMK AO2 SNB0457E28 SLP814 P0000 60000 T11221150 11111 21122 56006 FZRANO $
PASK 110456Z AUTO 05017KT 10SM OVC048 M12/M14 A2900 RMK AO2 SLP816 T11171144 FZRANO $
PASK 110356Z AUTO 04016KT 9SM FEW043 BKN055 BKN110 M12/M14 A2900 RMK AO2 SNE53 SLP818 P0000 T11171139 FZRANO $
PASK 110256Z AUTO 05018KT 4SM -SN BR BKN031 M12/M13 A2901 RMK AO2 SLP820 P0000 60000 T11171133 55006 FZRANO $
PASK 110251Z AUTO 05020KT 3SM -SN BR OVC031 M12/M13 A2901 RMK AO2 P0000 FZRANO $
PASK 110227Z AUTO 05017KT 3SM -SN BR OVC029 M12/M14 A2902 RMK AO2 P0000 FZRANO $
PASK 110205Z AUTO 05018KT 2 1/2SM -SN BR OVC029 M12/M14 A2902 RMK AO2 VIS 2V3 P0000 FZRANO $
PASK 110156Z AUTO 05017KT 3SM -SN BR BKN024 OVC031 M12/M13 A2903 RMK AO2 SLP826 P0000 T11171133 FZRANO $
PASK 110152Z AUTO 05016KT 3SM -SN BR BKN024 OVC031 M12/M13 A2903 RMK AO2 P0000 FZRANO $
PASK 110136Z AUTO 04016KT 2 1/2SM -SN BR BKN023 OVC031 M12/M13 A2903 RMK AO2 P0000 FZRANO $
PASK 110120Z AUTO 04016KT 1 1/4SM -SN BR SCT022 OVC031 M12/M13 A2903 RMK AO2 P0000 FZRANO $
PASK 110113Z AUTO 04016KT 1SM -SN BR BKN022 OVC028 M12/M14 A2903 RMK AO2 P0000 FZRANO $
PASK 110056Z AUTO 04016KT 1 1/2SM -SN BR BKN022 OVC028 M12/M14 A2903 RMK AO2 SLP828 P0000 T11171139 FZRANO $
PASK 110039Z AUTO 05014KT 1 1/4SM -SN BR BKN026 BKN043 OVC055 M12/M14 A2904 RMK AO2 P0000 FZRANO $
PASK 110027Z AUTO 05017KT 1 1/2SM -SN BR FEW028 BKN045 OVC055 M12/M14 A2903 RMK AO2 P0000 FZRANO $
PASK 110016Z AUTO 05015KT 2SM -SN FEW020 SCT032 OVC045 M12/M14 A2904 RMK AO2 VIS 1 3/4V3 P0000 FZRANO $
PASK 102356Z AUTO 05015KT 9SM -SN SCT020 BKN034 OVC044 M12/M14 A2905 RMK AO2 SLP834 P0000 60000 T11171144 11111 21133 58014 FZRANO $
PASK 102256Z AUTO 05016KT 4SM -SN OVC045 M12/M14 A2906 RMK AO2 SNB31 SLP839 P0000 T11171144 FZRANO $
PASK 102156Z AUTO 05014KT 10SM OVC046 M12/M16 A2908 RMK AO2 SLP845 T11221156 FZRANO $
PASK 102056Z AUTO 05014KT 10SM FEW050 M13/M16 A2909 RMK AO2 SLP848 T11281156 56004 FZRANO $
PASK 101956Z AUTO 05015KT 10SM FEW046 M13/M16 A2909 RMK AO2 SLP848 T11281156 FZRANO $
PASK 101856Z AUTO 06014KT 10SM OVC065 M12/M15 A2909 RMK AO2 SLP849 T11221150 FZRANO $
PASK 101756Z AUTO 05010KT 10SM OVC055 M12/M14 A2910 RMK AO2 SNE49 SLP852 P0000 60000 T11221144 11122 21144 58006 FZRANO $
PASK 101656Z AUTO 04012KT 5SM -SN BR FEW020 BKN036 OVC050 M13/M15 A2911 RMK AO2 SLP855 P0000 T11281150 FZRANO $
PASK 101611Z AUTO 05014KT 4SM -SN BR FEW022 BKN028 OVC047 M13/M15 A2912 RMK AO2 P0000 FZRANO $
PASK 101556Z AUTO 05014KT 5SM -SN BR SCT028 BKN036 OVC048 M13/M15 A2912 RMK AO2 SLP858 P0000 T11281150 FZRANO $
PASK 101456Z AUTO 04015KT 8SM -SN FEW011 SCT020 OVC050 M13/M16 A2912 RMK AO2 SLP858 P0000 60000 T11331156 58006 FZRANO $
PASK 101446Z AUTO 04015KT 6SM -SN BR FEW005 SCT021 OVC050 M13/M16 A2912 RMK AO2 P0000 FZRANO $
PASK 101431Z AUTO 04015KT 9SM -SN FEW005 BKN022 OVC050 M13/M16 A2913 RMK AO2 P0000 FZRANO $
PASK 101356Z AUTO 04013KT 3SM -SN BR FEW005 SCT035 OVC050 M14/M16 A2913 RMK AO2 SNB14 SLP862 P0000 T11391156 FZRANO $
PASK 101353Z AUTO 05014KT 3SM -SN BR FEW005 SCT035 OVC050 M14/M16 A2913 RMK AO2 SNB14 P0000 FZRANO $
PASK 101256Z AUTO 05013KT 10SM OVC055 M14/M16 A2914 RMK AO2 SNE17 SLP864 P0000 T11441161 FZRANO $
PASK 101156Z AUTO 05012G19KT 9SM -SN OVC060 M14/M16 A2914 RMK AO2 SLP866 P0000 60000 T11391161 11139 21167 51002 FZRANO $
PASK 101056Z AUTO 05014KT 9SM -SN FEW043 OVC060 M14/M16 A2914 RMK AO2 SLP866 P0000 T11391161 FZRANO $
PASK 100956Z AUTO 05015KT 6SM -SN BR OVC070 M14/M17 A2914 RMK AO2 SLP866 P0000 T11441167 FZRANO $
PASK 100856Z AUTO 05014KT 9SM -SN OVC070 M15/M17 A2914 RMK AO2 SLP865 P0000 60000 T11501167 411221167 53004 FZRANO $
PASK 100756Z AUTO 05010KT 9SM -SN CLR M17/M18 A2914 RMK AO2 SLP863 P0000 T11671183 FZRANO $
PASK 100656Z AUTO 05013G17KT 9SM -SN SCT015 M16/M18 A2913 RMK AO2 SLP860 P0000 T11611178 FZRANO $
PASK 100653Z AUTO 05012G17KT 9SM -SN SCT015 M16/M18 A2913 RMK AO2 P0000 FZRANO $
PASK 100642Z AUTO 05012KT 9SM -SN BKN015 M16/M18 A2913 RMK AO2 P0000 FZRANO $
PASK 100612Z AUTO 05011KT 9SM -SN FEW019 M16/M18 A2913 RMK AO2 P0000 FZRANO $
PASK 100556Z AUTO 05012KT 9SM -SN BKN019 M16/M18 A2912 RMK AO2 SLP858 P0000 60000 T11611183 11139 21161 53009 FZRANO $
PASK 100456Z AUTO 05013KT 9SM -SN BKN017 BKN032 BKN042 M15/M17 A2911 RMK AO2 SLP854 P0000 T11501172 FZRANO $
PASK 100404Z AUTO 05015KT 8SM -SN BKN019 OVC032 M14/M16 A2910 RMK AO2 P0000 FZRANO $
PASK 100356Z AUTO 05014KT 8SM -SN SCT021 OVC032 M14/M16 A2910 RMK AO2 SLP852 P0000 T11391161 FZRANO $
PASK 100343Z AUTO 05014KT 8SM -SN SCT023 OVC032 M14/M16 A2910 RMK AO2 P0000 FZRANO $
PASK 100313Z AUTO 05015KT 6SM -SN BR SCT011 OVC023 M14/M16 A2910 RMK AO2 P0000 FZRANO $
PASK 100256Z AUTO 05016KT 3SM -SN BR BKN011 BKN014 OVC070 M14/M16 A2909 RMK AO2 CIG 008V012 SLP849 P0000 60000 T11391161 55001 FZRANO $
PASK 100253Z AUTO 05016KT 3SM -SN BR BKN011 OVC070 M14/M16 A2909 RMK AO2 P0000 FZRANO $
PASK 100214Z AUTO 05016KT 5SM -SN BR SCT024 SCT050 OVC075 M14/M16 A2909 RMK AO2 P0000 FZRANO $
PASK 100205Z AUTO 05014KT 2 1/2SM -SN BR FEW024 OVC080 M14/M16 A2909 RMK AO2 P0000 FZRANO $
PASK 100156Z AUTO 05016KT 1 3/4SM -SN BR FEW014 OVC080 M14/M16 A2909 RMK AO2 SLP849 P0000 T11391161 FZRANO $
PASK 100143Z AUTO 05016KT 2 1/2SM -SN BR FEW014 OVC080 M14/M16 A2909 RMK AO2 P0000 FZRANO $
PASK 100127Z AUTO 05016KT 3SM -SN BR BKN022 BKN080 M14/M16 A2909 RMK AO2 P0000 FZRANO $
PASK 100056Z AUTO 05015KT 1 1/2SM -SN BR FEW018 OVC026 M14/M16 A2910 RMK AO2 SLP850 P0000 T11391161 FZRANO $
PASK 100047Z AUTO 05015KT 1 1/4SM -SN BR FEW018 BKN026 BKN039 M14/M16 A2910 RMK AO2 P0000 FZRANO $
PASK 100039Z AUTO 05017KT 1SM -SN BR FEW018 BKN024 BKN039 M14/M16 A2910 RMK AO2 P0000 FZRANO $
PASK 100025Z AUTO 05017KT 1 3/4SM -SN BR FEW020 BKN035 BKN055 M14/M16 A2910 RMK AO2 P0000 FZRANO $
PASK 092356Z AUTO 05015KT 5SM -SN BR FEW022 SCT027 OVC033 M14/M16 A2910 RMK AO2 SLP852 P0000 60000 T11441161 11144 21156 58002 FZRANO $
PASK 092330Z AUTO 05015KT 5SM -SN BR OVC024 M14/M16 A2911 RMK AO2 P0000 FZRANO $
PASK 092306Z AUTO 05014KT 2 1/2SM -SN BR OVC024 M14/M16 A2911 RMK AO2 P0000 FZRANO $
PASK 092256Z AUTO 05014KT 1 3/4SM -SN BR OVC024 M14/M16 A2911 RMK AO2 SLP854 P0000 T11441161 FZRANO $
PASK 092247Z AUTO 05014KT 2SM -SN BR OVC024 M14/M16 A2911 RMK AO2 P0000 FZRANO $
PASK 092240Z AUTO 05014KT 1 3/4SM -SN BR OVC024 M14/M16 A2911 RMK AO2 P0000 FZRANO $
PASK 092233Z AUTO 05015KT 1SM -SN BR BKN024 OVC032 M14/M17 A2911 RMK AO2 P0000 FZRANO $
PASK 092225Z AUTO 05014KT 1 1/4SM -SN BR BKN024 OVC032 M14/M17 A2911 RMK AO2 P0000 FZRANO $
PASK 092156Z AUTO 05014KT 1 1/2SM -SN BR OVC036 M15/M17 A2911 RMK AO2 SLP853 P0000 T11501172 FZRANO $
PASK 092140Z AUTO 05014KT 2SM -SN BR FEW019 OVC036 M15/M17 A2911 RMK AO2 P0000 FZRANO $
PASK 092133Z AUTO 05014KT 3SM -SN BR FEW019 SCT024 OVC036 M15/M17 A2910 RMK AO2 P0000 FZRANO $
PASK 092103Z AUTO 05015KT 5SM -SN BR SCT018 OVC029 M15/M17 A2910 RMK AO2 P0000 FZRANO $
PASK 092056Z AUTO 05014KT 2 1/2SM -SN BR SCT018 OVC029 M15/M17 A2910 RMK AO2 SLP853 P0000 60000 T11501167 50001 FZRANO $
PASK 092032Z AUTO 06014KT 7SM -SN BKN020 BKN050 M15/M17 A2910 RMK AO2 P0000 FZRANO $